Etusivu
METAR-TAF:

METAR-TAF

Lentoasemat :

O. R. Tambon kansainvälinen lentoasema

Johannesburg, Etelä-Afrikka

Leveyspiiri: 26-08S, Pituuspiiri: 028-14E, korkeus merenpinnasta: 1694 m

Tämänhetkinen sää

Tämä raportti tehtiin 17 minuuttia sitten, kello 20.30 UTC
Tuuli 6 kn lounaasta
Lämpötila 12°C
Kosteus 58%
Ilmanpaine 1028 hPa
Näkyvyys 10 km tai enemmän
ei pilviä alle 1500 m:ssä eikä cumulonimbus-pilviä

METAR: FAOR 222030Z 22006KT CAVOK 12/04 Q1028 NOSIG

Aika: 22:47 (20:47 UTC)

Sääennuste

Tämä raportti tehtiin 4 tuntia ja 47 minuuttia sitten, kello 16.00 UTC
Ennuste voimassa 22. päivästä klo 18 UTC - 23. päivään klo 24 UTC
Tuuli 3 kn eri suunnista
Näkyvyys 10 km tai enemmän
ei pilviä alle 1500 m:ssä eikä cumulonimbus-pilviä
Tulossa
23. päivästä klo 07 UTC - 23. päivään klo 09 UTC
Tuuli 12 kn luoteesta

TAF: FAOR 221600Z 2218/2324 VRB03KT CAVOK TX22/2312Z TN08/2305Z BECMG 2307/2309 31012KT

Säähavainnot ja -ennusteet yli 4000 lentoasemalta (METAR- ja TAF-raportit).

Käytössä olevat sääasemat on merkitty karttaan keltaisilla ja punaisilla pisteillä.

Aseta hiiri pisteen päälle nähdäksesi sääaseman nimen.

Klikkaa sitten nähdäksesi säähavainnot ja -ennusteet.

Kartan vaihtaminen: klikkaa mustalla rastilla varustettuja vihreitä pisteitä, niin voit zoomata sisään; viivalla varustettua vihreää pistettä, niin voit zoomata ulos tai vihreitä nuolia, niin pääset viereisille kartoille.


METAR-TAF: